Time;durP1;ratioP1;P1;durP2;ratioP2;P2;SDS_P1;SDS_P2;PMS_P1;PMS_P2;Temp;Humidity;BMP_temperature;BMP_pressure;BME280_temperature;BME280_humidity;BME280_pressure;Samples;Min_cycle;Max_cycle;Signal;HPM_P1;HPM_P2
2022/11/23 18:36:31;;;;;;;46.13;26.52;;;;;;;-0.56;83.22;99914.78;3587871;79;22417;-72
2022/11/23 18:41:23;;;;;;;43.70;23.90;;;;;;;-0.66;83.24;99921.12;3482720;80;21961;-72
2022/11/23 18:46:17;;;;;;;49.40;27.22;;;;;;;-0.66;83.42;99918.95;3517650;80;21532;-72
2022/11/23 18:51:10;;;;;;;45.23;26.35;;;;;;;-0.74;83.16;99921.13;3462155;80;21022;-72
2022/11/23 18:56:03;;;;;;;39.30;21.73;;;;;;;-0.73;83.27;99923.28;3470805;80;21018;-73
2022/11/23 19:00:55;;;;;;;41.88;22.10;;;;;;;-0.80;83.07;99910.23;3465196;80;21507;-72
2022/11/23 19:05:46;;;;;;;38.10;22.65;;;;;;;-0.88;83.09;99908.09;3485390;80;22159;-72
2022/11/23 19:10:38;;;;;;;34.88;20.77;;;;;;;-0.93;83.13;99912.09;3519465;80;20973;-72
2022/11/23 19:15:29;;;;;;;39.25;21.33;;;;;;;-0.99;83.11;99917.35;3509483;80;21010;-72
2022/11/23 19:20:22;;;;;;;40.40;22.58;;;;;;;-0.99;83.22;99910.11;3510174;80;20963;-73
2022/11/23 19:25:13;;;;;;;46.75;25.23;;;;;;;-1.00;83.17;99914.75;3508810;79;21615;-74
2022/11/23 19:30:09;;;;;;;45.88;25.92;;;;;;;-1.04;83.17;99915.00;3517036;79;21537;-74
2022/11/23 19:35:01;;;;;;;41.98;24.55;;;;;;;-1.08;83.22;99916.03;3470928;81;20994;-75
2022/11/23 19:39:52;;;;;;;40.35;23.22;;;;;;;-1.08;83.37;99918.58;3415780;81;21031;-75
2022/11/23 19:44:43;;;;;;;39.98;23.35;;;;;;;-1.12;83.15;99914.13;3405425;82;21514;-74
2022/11/23 19:49:35;;;;;;;43.45;24.77;;;;;;;-1.11;83.36;99912.04;3355309;82;20986;-75
2022/11/23 19:54:27;;;;;;;44.23;25.60;;;;;;;-1.09;83.25;99915.54;3430739;82;21581;-74
2022/11/23 19:59:18;;;;;;;40.98;23.40;;;;;;;-1.08;83.27;99927.52;3407642;81;20987;-73
2022/11/23 20:04:10;;;;;;;45.05;26.97;;;;;;;-1.06;83.35;99933.56;3405876;81;20943;-73
2022/11/23 20:09:06;;;;;;;39.30;22.45;;;;;;;-1.05;83.20;99930.23;3359298;81;21003;-73
2022/11/23 20:13:57;;;;;;;48.23;26.68;;;;;;;-1.07;83.08;99942.00;3397838;81;20964;-74
2022/11/23 20:18:57;;;;;;;42.23;24.52;;;;;;;-1.09;83.15;99937.22;3402826;81;21096;-73
2022/11/23 20:23:59;;;;;;;40.30;24.55;;;;;;;-1.05;83.41;99930.23;3414684;81;21068;-73
2022/11/23 20:28:53;;;;;;;38.10;21.27;;;;;;;-1.08;83.16;99928.38;3439140;82;21567;-73
2022/11/23 20:33:44;;;;;;;37.30;22.02;;;;;;;-1.10;83.11;99931.66;3370672;80;21520;-73
2022/11/23 20:38:37;;;;;;;36.53;21.17;;;;;;;-1.17;82.90;99923.68;3472641;80;20979;-73
2022/11/23 20:43:28;;;;;;;33.98;20.70;;;;;;;-1.21;82.97;99946.42;3503970;80;21162;-73
2022/11/23 20:48:19;;;;;;;37.23;21.30;;;;;;;-1.22;83.26;99950.63;3530444;80;20955;-73
2022/11/23 20:53:10;;;;;;;40.98;22.50;;;;;;;-1.19;83.23;99934.20;3476272;80;21018;-74
2022/11/23 20:58:01;;;;;;;36.85;21.40;;;;;;;-1.15;83.19;99924.63;3513660;80;20975;-73
2022/11/23 21:02:54;;;;;;;40.55;23.45;;;;;;;-1.15;83.08;99937.39;3458770;80;21010;-73
2022/11/23 21:07:47;;;;;;;38.75;22.40;;;;;;;-1.13;83.22;99949.36;3466595;80;21153;-73
2022/11/23 21:17:47;;;;;;;34.40;21.55;;;;;;;-1.07;83.12;99939.45;3508820;80;20960;-74
2022/11/23 21:22:38;;;;;;;42.65;24.20;;;;;;;-1.06;83.15;99951.42;3510651;80;21266;-74
2022/11/23 21:27:29;;;;;;;36.45;21.40;;;;;;;-1.02;83.32;99944.39;3526975;80;20979;-74
2022/11/23 21:32:20;;;;;;;39.88;21.55;;;;;;;-1.01;83.20;99940.65;3477786;80;22464;-73
2022/11/23 21:37:12;;;;;;;34.75;20.43;;;;;;;-1.01;82.99;99950.86;3484876;80;20987;-74
2022/11/23 21:42:04;;;;;;;41.75;22.67;;;;;;;-0.98;83.12;99960.36;3498148;79;20988;-74
2022/11/23 21:46:55;;;;;;;38.58;23.62;;;;;;;-0.99;83.07;99956.04;3468945;80;20986;-74
2022/11/23 21:51:47;;;;;;;38.80;22.48;;;;;;;-1.05;82.95;99953.19;3514006;79;21639;-74
2022/11/23 21:56:38;;;;;;;41.40;23.40;;;;;;;-1.07;83.04;99953.11;3520976;79;22097;-76
2022/11/23 22:01:33;;;;;;;44.90;23.38;;;;;;;-1.07;83.03;99956.03;3424141;79;20940;-74
2022/11/23 22:06:27;;;;;;;34.50;19.52;;;;;;;-1.15;83.05;99951.82;3482573;79;20971;-74
2022/11/23 22:11:22;;;;;;;41.98;22.85;;;;;;;-1.18;83.07;99957.66;3480123;79;20999;-73
2022/11/23 22:16:25;;;;;;;38.38;20.02;;;;;;;-1.20;83.13;99946.88;3484621;79;21517;-74
2022/11/23 22:21:18;;;;;;;32.58;18.95;;;;;;;-1.25;83.16;99942.84;3486471;80;21302;-73
2022/11/23 22:26:13;;;;;;;35.80;19.75;;;;;;;-1.29;83.24;99951.10;3488728;80;20936;-73
2022/11/23 22:31:06;;;;;;;35.25;20.32;;;;;;;-1.27;83.32;99954.64;3482260;80;21560;-74
2022/11/23 22:36:08;;;;;;;35.08;19.50;;;;;;;-1.27;83.32;99963.56;3431840;82;21349;-74
2022/11/23 22:41:04;;;;;;;35.60;20.97;;;;;;;-1.27;83.35;99944.44;3358464;81;21015;-75
2022/11/23 22:46:07;;;;;;;35.17;20.20;;;;;;;-1.26;83.37;99944.89;3423851;81;21011;-74
2022/11/23 22:51:00;;;;;;;31.75;18.12;;;;;;;-1.24;83.46;99953.91;3431629;82;20901;-73
2022/11/23 22:55:52;;;;;;;31.42;18.10;;;;;;;-1.24;83.39;99958.59;3447987;81;21069;-73
2022/11/23 23:00:43;;;;;;;32.60;18.50;;;;;;;-1.26;83.43;99950.00;3360781;81;21327;-73
2022/11/23 23:05:34;;;;;;;32.53;16.40;;;;;;;-1.25;83.34;99945.38;3372506;81;20988;-73
2022/11/23 23:10:26;;;;;;;30.92;18.17;;;;;;;-1.23;83.47;99934.86;3387921;81;22527;-73
2022/11/23 23:15:18;;;;;;;31.52;18.42;;;;;;;-1.23;83.34;99945.06;3439354;82;21020;-73
2022/11/23 23:20:09;;;;;;;27.67;17.52;;;;;;;-1.21;83.44;99942.19;3433050;81;21494;-73
2022/11/23 23:25:01;;;;;;;32.78;18.23;;;;;;;-1.18;83.47;99951.28;3395010;82;21014;-73
2022/11/23 23:29:52;;;;;;;28.85;17.02;;;;;;;-1.17;83.44;99944.09;3456797;82;21006;-73
2022/11/23 23:34:43;;;;;;;31.95;17.87;;;;;;;-1.13;83.50;99936.59;3433322;80;21402;-74
2022/11/23 23:39:34;;;;;;;31.73;16.93;;;;;;;-1.11;83.43;99947.75;3470840;80;21044;-73
2022/11/23 23:44:25;;;;;;;31.37;17.05;;;;;;;-1.13;83.37;99949.36;3468966;80;20905;-74
2022/11/23 23:49:16;;;;;;;28.23;18.73;;;;;;;-1.17;83.28;99955.56;3467769;80;21212;-73
2022/11/23 23:54:07;;;;;;;27.15;16.90;;;;;;;-1.13;83.49;99949.36;3511035;80;21015;-73
2022/11/23 23:58:59;;;;;;;30.30;17.30;;;;;;;-1.14;83.38;99943.39;3456546;80;21517;-74
